createdAt,value
2023-04-07T00:00:23.122Z,979.89
2023-04-07T00:01:23.109Z,979.88
2023-04-07T00:02:23.173Z,979.91
2023-04-07T00:03:23.220Z,979.87
2023-04-07T00:04:23.278Z,979.90
2023-04-07T00:05:23.070Z,979.85
2023-04-07T00:06:23.058Z,979.86
2023-04-07T00:07:23.035Z,979.84
2023-04-07T00:08:23.039Z,979.84
2023-04-07T00:09:23.032Z,979.83
2023-04-07T00:10:23.002Z,979.80
2023-04-07T00:11:23.041Z,979.82
2023-04-07T00:12:22.998Z,979.78
2023-04-07T00:13:22.959Z,979.80
2023-04-07T00:14:22.973Z,979.86
2023-04-07T00:15:22.941Z,979.79
2023-04-07T00:16:23.074Z,979.80
2023-04-07T00:17:22.943Z,979.82
2023-04-07T00:18:22.902Z,979.79
2023-04-07T00:19:22.894Z,979.81
2023-04-07T00:20:22.886Z,979.82
2023-04-07T00:21:22.859Z,979.78
2023-04-07T00:22:22.845Z,979.79
2023-04-07T00:23:22.842Z,979.79
2023-04-07T00:24:31.489Z,979.75
2023-04-07T00:25:23.800Z,979.72
2023-04-07T00:26:22.800Z,979.76
2023-04-07T00:27:22.773Z,979.73
2023-04-07T00:28:22.833Z,979.67
2023-04-07T00:29:22.773Z,979.68
2023-04-07T00:30:22.739Z,979.70
2023-04-07T00:31:22.778Z,979.62
2023-04-07T00:32:22.806Z,979.63
2023-04-07T00:33:22.720Z,979.60
2023-04-07T00:34:22.751Z,979.64
2023-04-07T00:35:22.688Z,979.67
2023-04-07T00:36:22.683Z,979.63
2023-04-07T00:37:22.665Z,979.62
2023-04-07T00:38:22.654Z,979.59
2023-04-07T00:39:22.654Z,979.59
2023-04-07T00:40:22.629Z,979.64
2023-04-07T00:41:22.610Z,979.58
2023-04-07T00:42:22.613Z,979.60
2023-04-07T00:43:22.585Z,979.58
2023-04-07T00:44:22.669Z,979.56
2023-04-07T00:45:22.563Z,979.56
2023-04-07T00:46:22.577Z,979.58
2023-04-07T00:47:22.566Z,979.54
2023-04-07T00:48:22.546Z,979.58
2023-04-07T00:49:22.536Z,979.58
2023-04-07T00:50:22.538Z,979.57
2023-04-07T00:51:22.468Z,979.62
2023-04-07T00:52:22.493Z,979.62
2023-04-07T00:53:22.455Z,979.65
2023-04-07T00:54:22.454Z,979.67
2023-04-07T00:55:22.457Z,979.65
2023-04-07T00:56:22.418Z,979.70
2023-04-07T00:57:22.410Z,979.67
2023-04-07T00:58:22.405Z,979.65
2023-04-07T00:59:22.380Z,979.72
2023-04-07T01:00:22.370Z,979.71
2023-04-07T01:01:22.434Z,979.66
2023-04-07T01:02:22.513Z,979.69
2023-04-07T01:03:22.556Z,979.72
2023-04-07T01:04:22.485Z,979.67
2023-04-07T01:05:22.306Z,979.70
2023-04-07T01:06:22.300Z,979.58
2023-04-07T01:07:22.270Z,979.62
2023-04-07T01:08:22.272Z,979.64
2023-04-07T01:09:22.290Z,979.61
2023-04-07T01:10:22.243Z,979.63
2023-04-07T01:11:22.266Z,979.60
2023-04-07T01:12:22.206Z,979.59
2023-04-07T01:13:22.224Z,979.61
2023-04-07T01:14:22.222Z,979.61
2023-04-07T01:15:22.156Z,979.63
2023-04-07T01:16:22.210Z,979.64
2023-04-07T01:17:22.160Z,979.65
2023-04-07T01:18:22.184Z,979.66
2023-04-07T01:19:22.122Z,979.65
2023-04-07T01:20:22.131Z,979.60
2023-04-07T01:21:22.121Z,979.60
2023-04-07T01:22:22.070Z,979.56
2023-04-07T01:23:22.078Z,979.61
2023-04-07T01:24:22.062Z,979.61
2023-04-07T01:25:22.060Z,979.60
2023-04-07T01:26:22.037Z,979.55
2023-04-07T01:27:22.024Z,979.60
2023-04-07T01:28:22.003Z,979.53
2023-04-07T01:29:22.030Z,979.61
2023-04-07T01:30:21.987Z,979.59
2023-04-07T01:31:21.987Z,979.56
2023-04-07T01:32:21.955Z,979.56
2023-04-07T01:33:21.956Z,979.58
2023-04-07T01:34:21.940Z,979.56
2023-04-07T01:35:21.917Z,979.49
2023-04-07T01:36:21.912Z,979.46
2023-04-07T01:37:21.929Z,979.46
2023-04-07T01:38:21.889Z,979.40
2023-04-07T01:39:21.907Z,979.42
2023-04-07T01:40:21.886Z,979.36
2023-04-07T01:41:21.831Z,979.34
2023-04-07T01:42:21.835Z,979.30
2023-04-07T01:43:21.810Z,979.31
2023-04-07T01:44:21.842Z,979.33
2023-04-07T01:45:21.802Z,979.28
2023-04-07T01:46:21.773Z,979.32
2023-04-07T01:47:21.970Z,979.24
2023-04-07T01:48:21.747Z,979.18
2023-04-07T01:49:21.751Z,979.17
2023-04-07T01:50:21.728Z,979.17
2023-04-07T01:51:21.804Z,979.19
2023-04-07T01:52:21.709Z,979.14
2023-04-07T01:53:21.685Z,979.12
2023-04-07T01:54:21.686Z,979.12
2023-04-07T01:55:21.715Z,979.11
2023-04-07T01:56:21.662Z,979.14
2023-04-07T01:57:21.645Z,979.09
2023-04-07T01:58:21.652Z,979.14
2023-04-07T01:59:21.624Z,979.10
2023-04-07T02:00:21.615Z,979.11
2023-04-07T02:01:21.645Z,979.14
2023-04-07T02:02:21.726Z,979.13
2023-04-07T02:03:21.754Z,979.11
2023-04-07T02:04:21.553Z,979.15
2023-04-07T02:05:21.582Z,979.13
2023-04-07T02:06:21.530Z,979.17
2023-04-07T02:07:21.510Z,979.10
2023-04-07T02:08:21.520Z,979.14
2023-04-07T02:09:21.508Z,979.06
2023-04-07T02:10:21.472Z,979.05
2023-04-07T02:11:21.486Z,979.07
2023-04-07T02:12:21.457Z,979.05
2023-04-07T02:13:21.473Z,979.06
2023-04-07T02:14:21.424Z,979.08
2023-04-07T02:15:21.476Z,979.06
2023-04-07T02:16:21.433Z,979.07
2023-04-07T02:17:21.395Z,979.12
2023-04-07T02:18:21.362Z,979.14
2023-04-07T02:19:21.388Z,979.07
2023-04-07T02:20:21.355Z,979.07
2023-04-07T02:21:21.339Z,979.10
2023-04-07T02:22:21.341Z,979.01
2023-04-07T02:23:21.329Z,979.05
2023-04-07T02:24:21.302Z,979.08
2023-04-07T02:25:21.289Z,979.09
2023-04-07T02:26:21.282Z,978.97
2023-04-07T02:27:21.254Z,979.04
2023-04-07T02:28:21.256Z,979.04
2023-04-07T02:29:21.237Z,979.01
2023-04-07T02:30:21.240Z,978.94
2023-04-07T02:31:21.237Z,978.94
2023-04-07T02:32:21.195Z,978.96
2023-04-07T02:33:21.233Z,979.00
2023-04-07T02:34:21.165Z,978.92
2023-04-07T02:35:21.210Z,978.94
2023-04-07T02:36:21.191Z,978.94
2023-04-07T02:37:21.151Z,978.97
2023-04-07T02:38:21.113Z,978.95
2023-04-07T02:39:21.133Z,978.91
2023-04-07T02:40:21.089Z,978.97
2023-04-07T02:41:21.078Z,978.95
2023-04-07T02:42:21.076Z,978.89
2023-04-07T02:43:21.059Z,978.91
2023-04-07T02:44:21.046Z,978.90
2023-04-07T02:45:21.025Z,978.90
2023-04-07T02:46:21.085Z,978.91
2023-04-07T02:47:21.106Z,978.89
2023-04-07T02:48:20.976Z,978.92
2023-04-07T02:49:20.968Z,978.85
2023-04-07T02:50:20.991Z,978.83
2023-04-07T02:51:20.951Z,978.85
2023-04-07T02:52:20.952Z,978.81
2023-04-07T02:53:20.919Z,978.82
2023-04-07T02:54:20.953Z,978.83
2023-04-07T02:55:20.887Z,978.81
2023-04-07T02:56:20.914Z,978.86
2023-04-07T02:57:20.874Z,978.82
2023-04-07T02:58:20.866Z,978.84
2023-04-07T02:59:20.865Z,978.84
2023-04-07T03:00:20.838Z,978.86
2023-04-07T03:01:20.856Z,978.86
2023-04-07T03:02:20.844Z,978.84
2023-04-07T03:03:21.042Z,978.88
2023-04-07T03:04:20.872Z,978.93
2023-04-07T03:05:20.797Z,978.91
2023-04-07T03:06:20.790Z,978.83
2023-04-07T03:07:20.755Z,978.81
2023-04-07T03:08:20.754Z,978.91
2023-04-07T03:09:20.720Z,978.89
2023-04-07T03:10:20.828Z,978.87
2023-04-07T03:11:20.691Z,978.88
2023-04-07T03:12:20.677Z,978.88
2023-04-07T03:13:20.675Z,978.89
2023-04-07T03:14:20.695Z,978.86
2023-04-07T03:15:20.660Z,978.89
2023-04-07T03:16:20.649Z,978.92
2023-04-07T03:17:20.661Z,978.86
2023-04-07T03:18:20.627Z,978.85
2023-04-07T03:19:20.592Z,978.95
2023-04-07T03:20:20.604Z,978.87
2023-04-07T03:21:20.562Z,978.92
2023-04-07T03:22:20.595Z,978.91
2023-04-07T03:23:20.556Z,978.88
2023-04-07T03:24:20.518Z,978.92
2023-04-07T03:25:20.624Z,978.93
2023-04-07T03:26:20.498Z,978.90
2023-04-07T03:27:20.501Z,978.95
2023-04-07T03:28:20.483Z,978.95
2023-04-07T03:29:20.458Z,978.93
2023-04-07T03:30:20.514Z,978.94
2023-04-07T03:31:20.491Z,978.96
2023-04-07T03:32:20.500Z,979.00
2023-04-07T03:33:20.449Z,978.96
2023-04-07T03:34:20.496Z,978.92
2023-04-07T03:35:20.438Z,978.96
2023-04-07T03:36:20.413Z,978.93
2023-04-07T03:37:20.366Z,978.97
2023-04-07T03:38:20.350Z,978.88
2023-04-07T03:39:20.332Z,978.93
2023-04-07T03:40:20.369Z,978.95
2023-04-07T03:41:20.326Z,978.88
2023-04-07T03:42:20.292Z,978.88
2023-04-07T03:43:20.275Z,978.87
2023-04-07T03:44:20.260Z,978.83
2023-04-07T03:45:20.279Z,978.84
2023-04-07T03:46:20.263Z,978.82
2023-04-07T03:47:20.231Z,978.83
2023-04-07T03:48:20.222Z,978.83
2023-04-07T03:49:20.214Z,978.85
2023-04-07T04:02:59.815Z,978.89
2023-04-07T04:04:00.071Z,978.92
2023-04-07T04:04:59.765Z,978.91
2023-04-07T04:05:59.691Z,978.91
2023-04-07T04:06:59.704Z,978.92
2023-04-07T04:07:59.689Z,978.87
2023-04-07T04:08:59.681Z,978.91
2023-04-07T04:09:59.640Z,978.92
2023-04-07T04:10:59.656Z,978.84
2023-04-07T04:11:59.629Z,978.90
2023-04-07T04:12:59.623Z,978.81
2023-04-07T04:13:59.591Z,978.91
2023-04-07T04:14:59.578Z,978.83
2023-04-07T04:15:59.667Z,978.86
2023-04-07T04:16:59.567Z,978.80
2023-04-07T04:17:59.568Z,978.85
2023-04-07T04:18:59.526Z,978.89
2023-04-07T04:19:59.556Z,978.83
2023-04-07T04:20:59.529Z,978.86
2023-04-07T04:21:59.515Z,978.93
2023-04-07T04:22:59.472Z,978.78
2023-04-07T04:23:59.518Z,978.82
2023-04-07T04:24:59.457Z,978.83
2023-04-07T04:25:59.446Z,978.85
2023-04-07T04:26:59.453Z,978.84
2023-04-07T04:27:59.447Z,978.77
2023-04-07T04:28:59.414Z,978.85
2023-04-07T04:29:59.404Z,978.86
2023-04-07T04:31:06.481Z,978.77
2023-04-07T04:32:06.872Z,978.79
2023-04-07T04:32:59.406Z,978.83
2023-04-07T04:33:59.331Z,978.77
2023-04-07T04:34:59.342Z,978.85
2023-04-07T04:35:59.316Z,978.78
2023-04-07T04:36:59.373Z,978.80
2023-04-07T04:37:59.329Z,978.76
2023-04-07T04:38:59.295Z,978.77
2023-04-07T04:39:59.279Z,978.76
2023-04-07T04:41:06.299Z,978.80
2023-04-07T04:41:59.268Z,978.77
2023-04-07T04:42:59.247Z,978.78
2023-04-07T04:43:59.215Z,978.75
2023-04-07T04:44:59.220Z,978.76
2023-04-07T04:45:59.211Z,978.82
2023-04-07T04:46:59.265Z,978.79
2023-04-07T04:47:59.204Z,978.75
2023-04-07T04:48:59.156Z,978.74
2023-04-07T04:49:59.152Z,978.74
2023-04-07T04:50:59.165Z,978.78
2023-04-07T04:51:59.115Z,978.78
2023-04-07T04:52:59.117Z,978.79
2023-04-07T04:53:59.112Z,978.84
2023-04-07T04:54:59.099Z,978.84
2023-04-07T04:55:59.063Z,978.83
2023-04-07T04:57:06.106Z,978.83
2023-04-07T04:58:06.560Z,978.84
2023-04-07T04:58:59.048Z,978.83
2023-04-07T05:00:07.385Z,978.84
2023-04-07T05:00:59.028Z,978.91
2023-04-07T05:01:59.041Z,978.89
2023-04-07T05:02:59.179Z,978.93
2023-04-07T05:03:59.647Z,978.95
2023-04-07T05:04:59.118Z,978.88
2023-04-07T05:05:58.947Z,978.90
2023-04-07T05:06:58.975Z,978.87
2023-04-07T05:07:58.925Z,978.87
2023-04-07T05:08:58.927Z,978.85
2023-04-07T05:09:58.937Z,978.85
2023-04-07T05:10:58.909Z,978.87
2023-04-07T05:11:58.913Z,978.77
2023-04-07T05:12:58.880Z,978.78
2023-04-07T05:13:58.875Z,978.85
2023-04-07T05:14:58.858Z,978.84
2023-04-07T05:15:58.865Z,978.80
2023-04-07T05:16:58.821Z,978.83
2023-04-07T05:17:58.838Z,978.85
2023-04-07T05:18:58.778Z,978.90
2023-04-07T05:19:58.818Z,978.83
2023-04-07T05:20:58.760Z,978.91
2023-04-07T05:21:58.754Z,978.89
2023-04-07T05:22:58.759Z,978.94
2023-04-07T05:23:58.749Z,978.88
2023-04-07T05:24:58.736Z,978.80
2023-04-07T05:25:58.713Z,978.83
2023-04-07T05:26:58.767Z,978.79
2023-04-07T05:27:58.679Z,978.78
2023-04-07T05:28:58.659Z,978.77
2023-04-07T05:29:58.650Z,978.80
2023-04-07T05:30:58.656Z,978.82
2023-04-07T05:31:58.652Z,978.78
2023-04-07T05:32:58.646Z,978.78
2023-04-07T05:33:58.605Z,978.77
2023-04-07T05:34:58.592Z,978.73
2023-04-07T05:35:58.684Z,978.74
2023-04-07T05:36:58.611Z,978.76
2023-04-07T05:37:58.544Z,978.62
2023-04-07T05:38:58.528Z,978.72
2023-04-07T05:39:58.525Z,978.75
2023-04-07T05:40:58.534Z,978.66
2023-04-07T05:41:58.513Z,978.75
2023-04-07T05:42:58.496Z,978.68
2023-04-07T05:43:58.470Z,978.73
2023-04-07T05:44:58.472Z,978.72
2023-04-07T05:45:58.542Z,978.69
2023-04-07T05:46:58.441Z,978.68
2023-04-07T05:47:58.468Z,978.71
2023-04-07T05:49:00.779Z,978.73
2023-04-07T05:49:59.393Z,978.74
2023-04-07T05:50:58.392Z,978.74
2023-04-07T05:51:58.385Z,978.72
2023-04-07T05:52:58.368Z,978.73
2023-04-07T05:53:58.346Z,978.80
2023-04-07T05:54:58.357Z,978.76
2023-04-07T05:55:58.328Z,978.74
2023-04-07T05:56:58.320Z,978.72
2023-04-07T05:57:58.312Z,978.75
2023-04-07T05:58:58.296Z,978.79
2023-04-07T05:59:58.270Z,978.64
2023-04-07T06:00:58.282Z,978.66
2023-04-07T06:01:58.371Z,978.73
2023-04-07T06:02:58.427Z,978.78
2023-04-07T06:03:58.233Z,978.75
2023-04-07T06:04:58.220Z,978.84
2023-04-07T06:05:58.222Z,978.78
2023-04-07T06:06:58.192Z,978.79
2023-04-07T06:07:58.164Z,978.78
2023-04-07T06:08:58.173Z,978.78
2023-04-07T06:09:58.123Z,978.76
2023-04-07T06:10:58.109Z,978.77
2023-04-07T06:11:58.115Z,978.78
2023-04-07T06:12:58.100Z,978.75
2023-04-07T06:13:58.094Z,978.77
2023-04-07T06:14:58.080Z,978.72
2023-04-07T06:15:58.060Z,978.74
2023-04-07T06:16:58.128Z,978.73
2023-04-07T06:17:58.163Z,978.78
2023-04-07T06:18:58.024Z,978.82
2023-04-07T06:19:58.000Z,978.77
2023-04-07T06:20:58.009Z,978.76
2023-04-07T06:22:05.016Z,978.79
2023-04-07T06:22:57.979Z,978.76
2023-04-07T06:24:04.965Z,978.71
2023-04-07T06:24:57.947Z,978.69
2023-04-07T06:25:57.933Z,978.73
2023-04-07T06:26:57.942Z,978.72
2023-04-07T06:27:57.921Z,978.68
2023-04-07T06:28:57.918Z,978.73
2023-04-07T06:29:57.872Z,978.76
2023-04-07T06:31:05.926Z,978.71
2023-04-07T06:31:57.844Z,978.69
2023-04-07T06:32:57.882Z,978.68
2023-04-07T06:33:57.839Z,978.67
2023-04-07T06:34:57.816Z,978.68
2023-04-07T06:36:04.810Z,978.69
2023-04-07T06:36:59.040Z,978.66
2023-04-07T06:38:07.506Z,978.66
2023-04-07T06:38:57.771Z,978.66
2023-04-07T06:39:57.764Z,978.69
2023-04-07T06:40:57.741Z,978.74
2023-04-07T06:41:57.730Z,978.69
2023-04-07T06:42:57.782Z,978.72
2023-04-07T06:43:57.719Z,978.76
2023-04-07T06:44:57.718Z,978.72
2023-04-07T06:45:57.713Z,978.76
2023-04-07T06:46:57.713Z,978.72
2023-04-07T06:47:57.695Z,978.70
2023-04-07T06:48:57.655Z,978.73
2023-04-07T06:49:57.653Z,978.73
2023-04-07T06:50:57.636Z,978.75
2023-04-07T06:51:57.615Z,978.71
2023-04-07T06:52:57.632Z,978.61
2023-04-07T06:53:57.595Z,978.66
2023-04-07T06:54:57.595Z,978.68
2023-04-07T06:55:57.595Z,978.63
2023-04-07T06:56:57.578Z,978.60
2023-04-07T06:57:57.583Z,978.61
2023-04-07T06:58:57.619Z,978.57
2023-04-07T06:59:57.512Z,978.55
2023-04-07T07:00:57.521Z,978.57
2023-04-07T07:01:57.603Z,978.53
2023-04-07T07:02:57.704Z,978.54
2023-04-07T07:03:57.606Z,978.50
2023-04-07T07:04:57.440Z,978.49
2023-04-07T07:05:57.434Z,978.45
2023-04-07T07:06:57.432Z,978.45
2023-04-07T07:07:57.399Z,978.44
2023-04-07T07:08:57.426Z,978.46
2023-04-07T07:09:57.385Z,978.47
2023-04-07T07:10:57.401Z,978.45
2023-04-07T07:11:57.362Z,978.49
2023-04-07T07:12:57.334Z,978.47
2023-04-07T07:13:57.349Z,978.46
2023-04-07T07:14:57.327Z,978.46
2023-04-07T07:15:57.344Z,978.52
2023-04-07T07:16:57.296Z,978.54
2023-04-07T07:17:57.337Z,978.43
2023-04-07T07:18:57.289Z,978.48
2023-04-07T07:19:57.250Z,978.47
2023-04-07T07:20:57.249Z,978.49
2023-04-07T07:21:57.227Z,978.45
2023-04-07T07:22:57.247Z,978.51
2023-04-07T07:23:57.223Z,978.48
2023-04-07T07:24:57.194Z,978.53
2023-04-07T07:25:57.187Z,978.52
2023-04-07T07:26:57.210Z,978.48
2023-04-07T07:27:57.163Z,978.56
2023-04-07T07:28:57.173Z,978.57
2023-04-07T07:29:57.133Z,978.48
2023-04-07T07:30:57.143Z,978.58
2023-04-07T07:31:57.121Z,978.47
2023-04-07T07:32:57.133Z,978.56
2023-04-07T07:33:57.106Z,978.55
2023-04-07T07:34:57.071Z,978.57
2023-04-07T07:35:57.050Z,978.54
2023-04-07T07:36:57.085Z,978.63
2023-04-07T07:37:57.034Z,978.61
2023-04-07T07:38:57.031Z,978.62
2023-04-07T07:39:57.015Z,978.59
2023-04-07T07:40:56.998Z,978.59
2023-04-07T07:41:56.991Z,978.55
2023-04-07T07:42:56.962Z,978.63
2023-04-07T07:43:56.984Z,978.63
2023-04-07T07:44:56.943Z,978.62
2023-04-07T07:45:56.941Z,978.66
2023-04-07T07:46:56.990Z,978.58
2023-04-07T07:47:56.975Z,978.57
2023-04-07T07:48:56.897Z,978.61
2023-04-07T07:49:56.902Z,978.53
2023-04-07T07:50:56.914Z,978.54
2023-04-07T07:51:56.857Z,978.51
2023-04-07T07:52:56.828Z,978.46
2023-04-07T07:53:56.842Z,978.52
2023-04-07T07:54:56.802Z,978.53
2023-04-07T07:55:56.797Z,978.50
2023-04-07T07:56:56.785Z,978.55
2023-04-07T07:57:56.767Z,978.54
2023-04-07T07:58:58.245Z,978.56
2023-04-07T07:59:56.787Z,978.50
2023-04-07T08:00:56.795Z,978.52
2023-04-07T08:01:56.768Z,978.53
2023-04-07T08:02:56.803Z,978.44
2023-04-07T08:03:56.917Z,978.46
2023-04-07T08:04:56.707Z,978.50
2023-04-07T08:05:56.666Z,978.45
2023-04-07T08:06:56.669Z,978.42
2023-04-07T08:07:56.671Z,978.46
2023-04-07T08:08:56.623Z,978.47
2023-04-07T08:09:56.649Z,978.42
2023-04-07T08:10:56.595Z,978.42
2023-04-07T08:11:56.777Z,978.40
2023-04-07T08:12:56.597Z,978.34
2023-04-07T08:13:56.579Z,978.39
2023-04-07T08:14:56.543Z,978.41
2023-04-07T08:15:56.554Z,978.34
2023-04-07T08:16:56.573Z,978.32
2023-04-07T08:17:56.660Z,978.38
2023-04-07T08:18:56.514Z,978.29
2023-04-07T08:19:56.500Z,978.32
2023-04-07T08:20:56.454Z,978.32
2023-04-07T08:21:56.452Z,978.32
2023-04-07T08:22:56.430Z,978.35
2023-04-07T08:23:56.480Z,978.34
2023-04-07T08:24:56.410Z,978.36
2023-04-07T08:25:56.409Z,978.32
2023-04-07T08:26:56.401Z,978.31
2023-04-07T08:27:56.397Z,978.32
2023-04-07T08:28:56.353Z,978.33
2023-04-07T08:29:56.369Z,978.32
2023-04-07T08:30:56.323Z,978.29
2023-04-07T08:31:56.513Z,978.31
2023-04-07T08:32:56.337Z,978.29
2023-04-07T08:33:56.302Z,978.31
2023-04-07T08:34:56.303Z,978.34
2023-04-07T08:35:56.324Z,978.30
2023-04-07T08:36:56.279Z,978.32
2023-04-07T08:37:56.256Z,978.31
2023-04-07T08:38:56.232Z,978.29
2023-04-07T08:39:56.238Z,978.31
2023-04-07T08:40:56.216Z,978.29
2023-04-07T08:41:56.184Z,978.28
2023-04-07T08:42:56.187Z,978.28
2023-04-07T08:43:56.166Z,978.27
2023-04-07T08:44:56.178Z,978.21
2023-04-07T08:45:56.142Z,978.20
2023-04-07T08:46:56.136Z,978.22
2023-04-07T08:47:56.170Z,978.19
2023-04-07T08:48:56.106Z,978.22
2023-04-07T08:49:56.115Z,978.20
2023-04-07T08:50:56.057Z,978.21
2023-04-07T08:51:56.056Z,978.20
2023-04-07T08:52:56.057Z,978.21
2023-04-07T08:53:56.049Z,978.19
2023-04-07T08:54:56.021Z,978.19
2023-04-07T08:55:56.014Z,978.20
2023-04-07T08:56:55.992Z,978.15
2023-04-07T08:57:56.012Z,978.20
2023-04-07T08:58:55.962Z,978.18
2023-04-07T08:59:55.978Z,978.16
2023-04-07T09:00:55.960Z,978.19
2023-04-07T09:01:55.961Z,978.23
2023-04-07T09:02:55.984Z,978.20
2023-04-07T09:03:55.947Z,978.17
2023-04-07T09:04:55.907Z,978.14
2023-04-07T09:05:55.882Z,978.17
2023-04-07T09:06:55.862Z,978.20
2023-04-07T09:07:55.861Z,978.16
2023-04-07T09:08:55.860Z,978.16
2023-04-07T09:09:55.843Z,978.17
2023-04-07T09:10:55.827Z,978.16
2023-04-07T09:11:55.804Z,978.20
2023-04-07T09:12:55.795Z,978.15
2023-04-07T09:13:55.816Z,978.23
2023-04-07T09:14:55.774Z,978.17
2023-04-07T09:15:55.762Z,978.16
2023-04-07T09:16:55.845Z,978.22
2023-04-07T09:17:55.777Z,978.15
2023-04-07T09:18:55.708Z,978.18
2023-04-07T09:19:55.727Z,978.18
2023-04-07T09:20:55.701Z,978.14
2023-04-07T09:21:55.674Z,978.14
2023-04-07T09:22:55.676Z,978.17
2023-04-07T09:23:55.669Z,978.16
2023-04-07T09:24:55.648Z,978.17
2023-04-07T09:25:55.625Z,978.13
2023-04-07T09:26:55.635Z,978.09
2023-04-07T09:27:55.620Z,978.13
2023-04-07T09:28:55.583Z,978.10
2023-04-07T09:29:55.576Z,978.05
2023-04-07T09:30:55.558Z,978.05
2023-04-07T09:31:55.609Z,978.02
2023-04-07T09:32:55.581Z,978.06
2023-04-07T09:33:55.578Z,978.01
2023-04-07T09:34:55.501Z,978.00
2023-04-07T09:35:55.593Z,978.09
2023-04-07T09:36:55.479Z,978.07
2023-04-07T09:37:55.482Z,978.02
2023-04-07T09:38:55.468Z,978.02
2023-04-07T09:39:55.459Z,978.05
2023-04-07T09:40:56.516Z,977.98
2023-04-07T09:41:55.456Z,978.02
2023-04-07T09:42:55.391Z,977.95
2023-04-07T09:43:55.396Z,977.97
2023-04-07T09:44:55.396Z,978.00
2023-04-07T09:45:55.385Z,978.02
2023-04-07T09:46:55.364Z,977.99
2023-04-07T10:03:27.592Z,977.79
2023-04-07T10:04:27.561Z,977.79
2023-04-07T10:05:27.563Z,977.79
2023-04-07T10:06:27.557Z,977.83
2023-04-07T10:07:27.502Z,977.77
2023-04-07T10:08:27.500Z,977.78
2023-04-07T10:09:27.501Z,977.79
2023-04-07T10:10:27.504Z,977.79
2023-04-07T10:11:27.445Z,977.80
2023-04-07T10:12:27.464Z,977.84
2023-04-07T10:13:27.448Z,977.79
2023-04-07T10:14:27.429Z,977.78
2023-04-07T10:15:27.430Z,977.80
2023-04-07T10:16:27.466Z,977.81
2023-04-07T10:17:27.402Z,977.76
2023-04-07T10:18:27.392Z,977.78
2023-04-07T10:19:27.357Z,977.72
2023-04-07T10:20:27.358Z,977.85
2023-04-07T10:21:27.335Z,977.83
2023-04-07T10:22:27.338Z,977.85
2023-04-07T10:23:27.409Z,977.76
2023-04-07T10:24:27.280Z,977.72
2023-04-07T10:25:27.303Z,977.69
2023-04-07T10:26:27.275Z,977.66
2023-04-07T10:27:27.244Z,977.68
2023-04-07T10:28:27.244Z,977.76
2023-04-07T10:29:27.215Z,977.73
2023-04-07T10:30:27.248Z,977.76
2023-04-07T10:31:27.214Z,977.72
2023-04-07T10:32:27.298Z,977.76
2023-04-07T10:33:27.153Z,977.70
2023-04-07T10:34:27.156Z,977.74
2023-04-07T10:35:27.211Z,977.73
2023-04-07T10:36:27.141Z,977.71
2023-04-07T10:37:27.099Z,977.76
2023-04-07T10:38:27.128Z,977.67
2023-04-07T10:39:27.084Z,977.68
2023-04-07T10:40:27.097Z,977.69
2023-04-07T10:41:34.073Z,977.73
2023-04-07T10:42:27.136Z,977.77
2023-04-07T10:43:27.029Z,977.72
2023-04-07T10:44:34.265Z,977.74
2023-04-07T10:45:34.019Z,977.73
2023-04-07T10:46:34.083Z,977.74
2023-04-07T10:47:26.992Z,977.71
2023-04-07T10:48:34.005Z,977.72
2023-04-07T10:49:26.961Z,977.67
2023-04-07T10:50:26.948Z,977.67
2023-04-07T10:51:26.933Z,977.70
2023-04-07T10:52:26.922Z,977.72
2023-04-07T10:53:26.913Z,977.68
2023-04-07T10:54:29.098Z,977.75
2023-04-07T10:55:26.912Z,977.68
2023-04-07T10:56:26.869Z,977.74
2023-04-07T10:57:26.869Z,977.71
2023-04-07T10:58:26.876Z,977.70
2023-04-07T10:59:26.832Z,977.64
2023-04-07T11:00:26.826Z,977.59
2023-04-07T11:01:26.925Z,977.73
2023-04-07T11:02:26.917Z,977.66
2023-04-07T11:03:26.878Z,977.57
2023-04-07T11:04:26.831Z,977.59
2023-04-07T11:05:26.768Z,977.62
2023-04-07T11:06:26.765Z,977.59
2023-04-07T11:07:26.721Z,977.65
2023-04-07T11:08:26.738Z,977.64
2023-04-07T11:09:26.691Z,977.61
2023-04-07T11:10:26.706Z,977.61
2023-04-07T11:11:26.708Z,977.57
2023-04-07T11:12:26.674Z,977.52
2023-04-07T11:13:26.651Z,977.52
2023-04-07T11:14:26.648Z,977.54
2023-04-07T11:15:26.616Z,977.53
2023-04-07T11:16:26.672Z,977.46
2023-04-07T11:17:26.637Z,977.58
2023-04-07T11:18:26.598Z,977.53
2023-04-07T11:19:26.584Z,977.51
2023-04-07T11:20:26.556Z,977.60
2023-04-07T11:21:26.675Z,977.54
2023-04-07T11:22:30.393Z,977.49
2023-04-07T11:23:26.649Z,977.50
2023-04-07T11:24:26.523Z,977.52
2023-04-07T11:25:26.499Z,977.50
2023-04-07T11:26:26.518Z,977.47
2023-04-07T11:27:26.488Z,977.51
2023-04-07T11:28:26.454Z,977.51
2023-04-07T11:29:26.447Z,977.50
2023-04-07T11:30:26.448Z,977.51
2023-04-07T11:31:26.475Z,977.54
2023-04-07T11:32:26.458Z,977.49
2023-04-07T11:33:26.389Z,977.47
2023-04-07T11:34:26.385Z,977.48
2023-04-07T11:35:26.373Z,977.46
2023-04-07T11:36:26.384Z,977.43
2023-04-07T11:37:26.335Z,977.53
2023-04-07T11:38:26.346Z,977.48
2023-04-07T11:39:26.404Z,977.50
2023-04-07T11:40:26.322Z,977.46
2023-04-07T11:41:26.307Z,977.50
2023-04-07T11:42:26.284Z,977.50
2023-04-07T11:43:26.272Z,977.42
2023-04-07T11:44:26.244Z,977.46
2023-04-07T11:45:26.232Z,977.39
2023-04-07T11:46:26.270Z,977.43
2023-04-07T11:47:26.211Z,977.44
2023-04-07T11:48:26.258Z,977.37
2023-04-07T11:49:26.272Z,977.38
2023-04-07T11:50:26.177Z,977.39
2023-04-07T11:51:26.167Z,977.35
2023-04-07T11:52:26.187Z,977.39
2023-04-07T11:53:26.148Z,977.38
2023-04-07T11:54:26.130Z,977.43
2023-04-07T11:55:26.137Z,977.44
2023-04-07T11:56:26.130Z,977.42
2023-04-07T11:57:26.118Z,977.43
2023-04-07T11:58:26.072Z,977.42
2023-04-07T11:59:26.050Z,977.40
2023-04-07T12:00:26.076Z,977.42
2023-04-07T12:01:26.071Z,977.39
2023-04-07T12:02:26.103Z,977.33
2023-04-07T12:03:26.172Z,977.40
2023-04-07T12:04:26.239Z,977.38
2023-04-07T12:05:25.980Z,977.39
2023-04-07T12:06:26.006Z,977.36
2023-04-07T12:07:27.382Z,977.41
2023-04-07T12:08:25.948Z,977.44
2023-04-07T12:09:25.932Z,977.41
2023-04-07T12:10:25.923Z,977.45
2023-04-07T12:11:25.912Z,977.38
2023-04-07T12:12:25.921Z,977.35
2023-04-07T12:13:25.874Z,977.40
2023-04-07T12:14:25.862Z,977.32
2023-04-07T12:15:25.864Z,977.36
2023-04-07T12:16:25.895Z,977.43
2023-04-07T12:17:25.861Z,977.38
2023-04-07T12:18:25.805Z,977.38
2023-04-07T12:19:25.815Z,977.36
2023-04-07T12:20:25.795Z,977.36
2023-04-07T12:21:25.792Z,977.41
2023-04-07T12:22:25.788Z,977.34
2023-04-07T12:23:25.747Z,977.33
2023-04-07T12:24:25.755Z,977.33
2023-04-07T12:25:25.722Z,977.29
2023-04-07T12:26:25.714Z,977.23
2023-04-07T12:27:39.677Z,977.37
2023-04-07T12:28:26.676Z,977.35
2023-04-07T12:29:25.662Z,977.33
2023-04-07T12:30:25.658Z,977.33
2023-04-07T12:31:25.706Z,977.34
2023-04-07T12:32:25.691Z,977.39
2023-04-07T12:33:25.610Z,977.28
2023-04-07T12:34:25.617Z,977.25
2023-04-07T12:35:25.625Z,977.29
2023-04-07T12:36:25.574Z,977.35
2023-04-07T12:37:25.587Z,977.35
2023-04-07T12:38:25.588Z,977.33
2023-04-07T12:39:25.541Z,977.34
2023-04-07T12:40:25.528Z,977.33
2023-04-07T12:41:25.539Z,977.32
2023-04-07T12:42:25.509Z,977.30
2023-04-07T12:43:25.528Z,977.34
2023-04-07T12:44:25.483Z,977.30
2023-04-07T12:45:25.465Z,977.32
2023-04-07T12:46:25.564Z,977.33
2023-04-07T12:47:25.487Z,977.38
2023-04-07T12:48:25.447Z,977.35
2023-04-07T12:49:25.409Z,977.32
2023-04-07T12:50:25.407Z,977.31
2023-04-07T12:51:25.410Z,977.33
2023-04-07T12:52:25.373Z,977.34
2023-04-07T12:53:25.407Z,977.34
2023-04-07T12:54:25.331Z,977.25
2023-04-07T12:55:25.335Z,977.35
2023-04-07T12:56:25.328Z,977.32